createdAt,value
2017-09-24T00:00:55.291Z,9.50
2017-09-24T00:01:55.281Z,9.53
2017-09-24T00:02:55.268Z,9.54
2017-09-24T00:03:55.257Z,9.54
2017-09-24T00:04:55.247Z,9.51
2017-09-24T00:05:55.387Z,9.53
2017-09-24T00:06:55.224Z,9.53
2017-09-24T00:07:55.214Z,9.58
2017-09-24T00:08:55.201Z,9.54
2017-09-24T00:09:55.191Z,9.53
2017-09-24T00:10:55.178Z,9.51
2017-09-24T00:11:55.347Z,9.51
2017-09-24T00:12:55.161Z,9.51
2017-09-24T00:13:55.150Z,9.53
2017-09-24T00:14:55.141Z,9.54
2017-09-24T00:15:55.122Z,9.51
2017-09-24T00:16:55.111Z,9.56
2017-09-24T00:17:55.254Z,9.50
2017-09-24T00:18:55.089Z,9.54
2017-09-24T00:19:55.078Z,9.43
2017-09-24T00:20:55.071Z,9.51
2017-09-24T00:21:55.055Z,9.53
2017-09-24T00:22:55.045Z,9.38
2017-09-24T00:23:55.187Z,9.39
2017-09-24T00:24:55.020Z,9.46
2017-09-24T00:25:55.014Z,9.39
2017-09-24T00:26:55.004Z,9.48
2017-09-24T00:27:54.992Z,9.47
2017-09-24T00:28:54.976Z,9.38
2017-09-24T00:29:55.116Z,9.40
2017-09-24T00:30:54.952Z,9.42
2017-09-24T00:31:54.941Z,9.46
2017-09-24T00:32:54.929Z,9.40
2017-09-24T00:33:54.920Z,9.38
2017-09-24T00:34:54.913Z,9.43
2017-09-24T00:35:55.045Z,9.35
2017-09-24T00:36:54.885Z,9.42
2017-09-24T00:37:54.873Z,9.50
2017-09-24T00:38:54.863Z,9.50
2017-09-24T00:39:54.851Z,9.51
2017-09-24T00:40:54.840Z,9.47
2017-09-24T00:41:54.979Z,9.48
2017-09-24T00:42:54.822Z,9.53
2017-09-24T00:43:54.805Z,9.47
2017-09-24T00:44:54.795Z,9.47
2017-09-24T00:45:54.787Z,9.54
2017-09-24T00:46:54.771Z,9.48
2017-09-24T00:47:54.914Z,9.54
2017-09-24T00:48:54.749Z,9.53
2017-09-24T00:49:54.887Z,9.42
2017-09-24T00:50:54.726Z,9.43
2017-09-24T00:51:54.712Z,9.43
2017-09-24T00:52:54.701Z,9.42
2017-09-24T00:53:54.839Z,9.40
2017-09-24T00:54:54.684Z,9.40
2017-09-24T00:55:54.667Z,9.38
2017-09-24T00:56:54.655Z,9.32
2017-09-24T00:57:54.644Z,9.38
2017-09-24T00:58:54.633Z,9.36
2017-09-24T00:59:54.771Z,9.29
2017-09-24T01:00:54.609Z,9.17
2017-09-24T01:01:54.599Z,9.13
2017-09-24T01:02:54.587Z,8.91
2017-09-24T01:03:54.573Z,8.91
2017-09-24T01:04:54.560Z,8.74
2017-09-24T01:05:54.699Z,8.66
2017-09-24T01:06:54.539Z,8.71
2017-09-24T01:07:54.524Z,8.73
2017-09-24T01:08:54.514Z,8.74
2017-09-24T01:09:54.502Z,8.62
2017-09-24T01:10:54.488Z,8.56
2017-09-24T01:11:54.627Z,8.62
2017-09-24T01:12:54.464Z,8.61
2017-09-24T01:13:54.452Z,8.63
2017-09-24T01:14:54.441Z,8.61
2017-09-24T01:15:54.428Z,8.59
2017-09-24T01:16:54.416Z,8.63
2017-09-24T01:17:54.552Z,8.68
2017-09-24T01:18:54.392Z,8.68
2017-09-24T01:19:54.378Z,8.76
2017-09-24T01:20:54.366Z,8.80
2017-09-24T01:21:54.360Z,8.83
2017-09-24T01:22:54.343Z,8.63
2017-09-24T01:23:54.479Z,8.68
2017-09-24T01:24:54.325Z,8.70
2017-09-24T01:25:54.307Z,8.71
2017-09-24T01:26:54.294Z,8.77
2017-09-24T01:27:54.280Z,8.70
2017-09-24T01:28:54.267Z,8.74
2017-09-24T01:29:54.407Z,8.74
2017-09-24T01:30:54.244Z,8.77
2017-09-24T01:31:54.382Z,8.79
2017-09-24T01:32:54.223Z,8.87
2017-09-24T01:33:54.207Z,8.81
2017-09-24T01:34:54.195Z,8.83
2017-09-24T01:35:54.333Z,8.96
2017-09-24T01:36:54.171Z,8.92
2017-09-24T01:37:54.159Z,8.95
2017-09-24T01:38:54.147Z,8.91
2017-09-24T01:39:54.142Z,8.96
2017-09-24T01:40:54.123Z,9.05
2017-09-24T01:41:54.263Z,8.95
2017-09-24T01:42:54.099Z,8.95
2017-09-24T01:43:54.093Z,9.04
2017-09-24T01:44:54.075Z,8.99
2017-09-24T01:45:54.065Z,8.95
2017-09-24T01:46:54.063Z,8.98
2017-09-24T01:47:54.190Z,8.94
2017-09-24T01:48:54.027Z,9.01
2017-09-24T01:49:54.017Z,9.08
2017-09-24T01:50:54.003Z,8.98
2017-09-24T01:51:53.992Z,8.99
2017-09-24T01:52:53.982Z,9.02
2017-09-24T01:53:54.119Z,9.02
2017-09-24T01:54:53.955Z,8.96
2017-09-24T01:55:53.948Z,8.86
2017-09-24T01:56:53.933Z,8.84
2017-09-24T01:57:53.920Z,8.84
2017-09-24T01:58:53.914Z,8.77
2017-09-24T01:59:54.045Z,8.81
2017-09-24T02:00:53.884Z,8.76
2017-09-24T02:01:53.870Z,8.76
2017-09-24T02:02:53.858Z,8.77
2017-09-24T02:03:53.846Z,8.84
2017-09-24T02:04:53.835Z,8.79
2017-09-24T02:05:53.974Z,8.76
2017-09-24T02:06:53.810Z,8.79
2017-09-24T02:07:53.798Z,8.74
2017-09-24T02:08:53.785Z,8.79
2017-09-24T02:09:53.774Z,8.77
2017-09-24T02:10:53.761Z,8.76
2017-09-24T02:11:53.899Z,8.73
2017-09-24T02:12:53.737Z,8.66
2017-09-24T02:13:53.725Z,8.66
2017-09-24T02:14:53.712Z,8.56
2017-09-24T02:15:53.698Z,8.44
2017-09-24T02:16:53.688Z,8.28
2017-09-24T02:17:53.826Z,8.25
2017-09-24T02:18:53.664Z,8.18
2017-09-24T02:19:53.656Z,7.97
2017-09-24T02:20:53.638Z,7.98
2017-09-24T02:21:53.624Z,7.98
2017-09-24T02:22:53.613Z,7.92
2017-09-24T02:23:53.751Z,7.93
2017-09-24T02:24:53.591Z,7.93
2017-09-24T02:25:53.575Z,7.90
2017-09-24T02:26:53.560Z,7.86
2017-09-24T02:27:53.548Z,7.95
2017-09-24T02:28:53.540Z,7.93
2017-09-24T02:29:53.673Z,8.04
2017-09-24T02:30:53.517Z,8.04
2017-09-24T02:31:53.502Z,8.04
2017-09-24T02:32:53.489Z,7.98
2017-09-24T02:33:53.473Z,8.00
2017-09-24T02:34:53.460Z,8.05
2017-09-24T02:35:53.596Z,8.05
2017-09-24T02:36:53.434Z,8.04
2017-09-24T02:37:53.422Z,8.02
2017-09-24T02:38:53.414Z,8.05
2017-09-24T02:39:53.397Z,8.10
2017-09-24T02:40:53.383Z,8.11
2017-09-24T02:41:53.482Z,8.18
2017-09-24T02:42:53.364Z,8.23
2017-09-24T02:43:53.345Z,8.23
2017-09-24T02:44:53.339Z,8.30
2017-09-24T02:45:53.325Z,8.29
2017-09-24T02:46:53.313Z,8.40
2017-09-24T02:47:53.394Z,8.43
2017-09-24T02:48:53.280Z,8.38
2017-09-24T02:49:53.270Z,8.44
2017-09-24T02:50:53.263Z,8.44
2017-09-24T02:51:53.249Z,8.43
2017-09-24T02:52:53.232Z,8.40
2017-09-24T02:53:53.320Z,8.38
2017-09-24T02:54:53.208Z,8.47
2017-09-24T02:55:53.300Z,8.44
2017-09-24T02:56:53.181Z,8.44
2017-09-24T02:57:53.172Z,8.47
2017-09-24T02:58:53.157Z,8.55
2017-09-24T02:59:53.249Z,8.53
2017-09-24T03:00:53.137Z,8.47
2017-09-24T03:01:53.119Z,8.47
2017-09-24T03:02:53.107Z,8.55
2017-09-24T03:03:53.094Z,8.52
2017-09-24T03:04:53.088Z,8.50
2017-09-24T03:05:53.174Z,8.47
2017-09-24T03:06:53.063Z,8.44
2017-09-24T03:07:53.050Z,8.43
2017-09-24T03:08:53.032Z,8.44
2017-09-24T03:09:53.021Z,8.41
2017-09-24T03:10:53.010Z,8.44
2017-09-24T03:11:53.095Z,8.44
2017-09-24T03:12:52.984Z,8.45
2017-09-24T03:13:52.972Z,8.45
2017-09-24T03:14:52.958Z,8.44
2017-09-24T03:15:52.945Z,8.37
2017-09-24T03:16:52.946Z,8.34
2017-09-24T03:17:53.023Z,8.33
2017-09-24T03:18:52.914Z,8.29
2017-09-24T03:19:52.902Z,8.28
2017-09-24T03:20:52.883Z,8.26
2017-09-24T03:21:52.878Z,8.15
2017-09-24T03:22:52.860Z,8.15
2017-09-24T03:23:52.953Z,8.28
2017-09-24T03:24:52.834Z,8.28
2017-09-24T03:25:52.822Z,8.23
2017-09-24T03:26:52.813Z,8.30
2017-09-24T03:27:52.798Z,8.34
2017-09-24T03:28:52.786Z,8.30
2017-09-24T03:29:52.872Z,8.33
2017-09-24T03:30:52.767Z,8.30
2017-09-24T03:31:52.748Z,8.28
2017-09-24T03:32:52.740Z,8.29
2017-09-24T03:33:52.723Z,8.30
2017-09-24T03:34:52.710Z,8.28
2017-09-24T03:35:52.800Z,8.37
2017-09-24T03:36:52.690Z,8.30
2017-09-24T03:37:52.674Z,8.26
2017-09-24T03:38:52.660Z,8.33
2017-09-24T03:39:52.649Z,8.26
2017-09-24T03:40:52.635Z,8.30
2017-09-24T03:41:52.725Z,8.34
2017-09-24T03:42:52.612Z,8.30
2017-09-24T03:43:52.599Z,8.30
2017-09-24T03:44:52.587Z,8.23
2017-09-24T03:45:52.578Z,8.22
2017-09-24T03:46:52.562Z,8.22
2017-09-24T03:47:52.653Z,8.08
2017-09-24T03:48:52.536Z,8.02
2017-09-24T03:49:52.622Z,7.86
2017-09-24T03:50:52.518Z,7.82
2017-09-24T03:51:52.502Z,7.77
2017-09-24T03:52:52.485Z,7.63
2017-09-24T03:53:52.580Z,7.64
2017-09-24T03:54:52.460Z,7.55
2017-09-24T03:55:52.445Z,7.61
2017-09-24T03:56:52.434Z,7.57
2017-09-24T03:57:52.420Z,7.46
2017-09-24T03:58:52.408Z,7.45
2017-09-24T03:59:52.499Z,7.50
2017-09-24T04:00:52.380Z,7.43
2017-09-24T04:01:52.370Z,7.50
2017-09-24T04:02:52.354Z,7.45
2017-09-24T04:03:52.346Z,7.55
2017-09-24T04:04:52.328Z,7.50
2017-09-24T04:05:52.414Z,7.43
2017-09-24T04:06:52.303Z,7.42
2017-09-24T04:07:52.298Z,7.42
2017-09-24T04:08:52.274Z,7.42
2017-09-24T04:09:52.266Z,7.46
2017-09-24T04:10:52.248Z,7.45
2017-09-24T04:11:52.334Z,7.48
2017-09-24T04:12:52.223Z,7.53
2017-09-24T04:13:52.213Z,7.55
2017-09-24T04:14:52.197Z,7.63
2017-09-24T04:15:52.182Z,7.57
2017-09-24T04:16:52.169Z,7.57
2017-09-24T04:17:52.258Z,7.61
2017-09-24T04:18:52.144Z,7.58
2017-09-24T04:19:52.135Z,7.61
2017-09-24T04:20:52.135Z,7.53
2017-09-24T04:21:52.104Z,7.67
2017-09-24T04:22:52.102Z,7.63
2017-09-24T04:23:52.183Z,7.63
2017-09-24T04:24:52.065Z,7.55
2017-09-24T04:25:52.052Z,7.60
2017-09-24T04:26:52.043Z,7.63
2017-09-24T04:27:52.023Z,7.60
2017-09-24T04:28:52.016Z,7.63
2017-09-24T04:29:52.097Z,7.55
2017-09-24T04:30:51.986Z,7.61
2017-09-24T04:31:51.977Z,7.52
2017-09-24T04:32:51.964Z,7.55
2017-09-24T04:33:51.945Z,7.60
2017-09-24T04:34:51.933Z,7.61
2017-09-24T04:35:52.024Z,7.60
2017-09-24T04:36:51.911Z,7.57
2017-09-24T04:37:51.891Z,7.53
2017-09-24T04:38:51.880Z,7.58
2017-09-24T04:39:51.864Z,7.53
2017-09-24T04:40:51.882Z,7.53
2017-09-24T04:41:51.939Z,7.52
2017-09-24T04:42:51.826Z,7.48
2017-09-24T04:43:51.812Z,7.43
2017-09-24T04:44:51.804Z,7.50
2017-09-24T04:45:51.792Z,7.46
2017-09-24T04:46:51.779Z,7.53
2017-09-24T04:47:51.865Z,7.61
2017-09-24T04:48:51.752Z,7.57
2017-09-24T04:49:51.739Z,7.55
2017-09-24T04:50:51.720Z,7.58
2017-09-24T04:51:51.707Z,7.58
2017-09-24T04:52:51.699Z,7.63
2017-09-24T04:53:51.786Z,7.60
2017-09-24T04:54:51.668Z,7.53
2017-09-24T04:55:51.654Z,7.57
2017-09-24T04:56:51.647Z,7.53
2017-09-24T04:57:51.635Z,7.64
2017-09-24T04:58:51.615Z,7.55
2017-09-24T04:59:51.702Z,7.63
2017-09-24T05:00:51.690Z,7.53
2017-09-24T05:01:51.582Z,7.50
2017-09-24T05:02:51.568Z,7.45
2017-09-24T05:03:51.554Z,7.45
2017-09-24T05:04:51.535Z,7.31
2017-09-24T05:05:51.625Z,7.25
2017-09-24T05:06:51.516Z,7.28
2017-09-24T05:07:51.498Z,7.34
2017-09-24T05:08:51.489Z,7.23
2017-09-24T05:09:51.471Z,7.20
2017-09-24T05:10:51.457Z,7.12
2017-09-24T05:11:51.542Z,7.20
2017-09-24T05:12:51.435Z,7.15
2017-09-24T05:13:51.416Z,7.15
2017-09-24T05:14:51.403Z,7.12
2017-09-24T05:15:51.390Z,7.10
2017-09-24T05:16:51.382Z,7.21
2017-09-24T05:17:51.462Z,7.23
2017-09-24T05:18:51.349Z,7.16
2017-09-24T05:19:51.435Z,7.24
2017-09-24T05:20:51.325Z,7.27
2017-09-24T05:21:51.309Z,7.23
2017-09-24T05:22:51.295Z,7.34
2017-09-24T05:23:51.380Z,7.34
2017-09-24T05:24:51.268Z,7.31
2017-09-24T05:25:51.254Z,7.25
2017-09-24T05:26:51.249Z,7.31
2017-09-24T05:27:51.226Z,7.28
2017-09-24T05:28:51.213Z,7.27
2017-09-24T05:29:51.297Z,7.35
2017-09-24T05:30:51.185Z,7.35
2017-09-24T05:31:51.171Z,7.31
2017-09-24T05:32:51.158Z,7.28
2017-09-24T05:33:51.145Z,7.37
2017-09-24T05:34:51.132Z,7.31
2017-09-24T05:35:51.218Z,7.39
2017-09-24T05:36:51.105Z,7.34
2017-09-24T05:37:51.096Z,7.27
2017-09-24T05:38:51.077Z,7.27
2017-09-24T05:39:51.064Z,7.40
2017-09-24T05:40:51.051Z,7.32
2017-09-24T05:41:51.137Z,7.39
2017-09-24T05:42:51.033Z,7.25
2017-09-24T05:43:51.009Z,7.35
2017-09-24T05:44:50.996Z,7.31
2017-09-24T05:45:50.988Z,7.31
2017-09-24T05:46:50.971Z,7.39
2017-09-24T05:47:51.056Z,7.43
2017-09-24T05:48:50.942Z,7.39
2017-09-24T05:49:50.930Z,7.40
2017-09-24T05:50:50.918Z,7.42
2017-09-24T05:51:50.903Z,7.45
2017-09-24T05:52:50.895Z,7.42
2017-09-24T05:53:50.976Z,7.43
2017-09-24T05:54:50.863Z,7.45
2017-09-24T05:55:50.849Z,7.49
2017-09-24T05:56:50.836Z,7.48
2017-09-24T05:57:50.824Z,7.46
2017-09-24T05:58:50.808Z,7.42
2017-09-24T05:59:50.901Z,7.45
2017-09-24T06:00:50.783Z,7.43
2017-09-24T06:01:50.769Z,7.46
2017-09-24T06:02:50.756Z,7.49
2017-09-24T06:03:50.741Z,7.48
2017-09-24T06:04:50.729Z,7.43
2017-09-24T06:05:50.816Z,7.50
2017-09-24T06:06:50.703Z,7.45
2017-09-24T06:07:50.693Z,7.48
2017-09-24T06:08:50.674Z,7.43
2017-09-24T06:09:50.667Z,7.43
2017-09-24T06:10:50.656Z,7.42
2017-09-24T06:11:50.735Z,7.43
2017-09-24T06:12:50.753Z,7.15
2017-09-24T06:13:50.611Z,7.15
2017-09-24T06:14:50.595Z,7.12
2017-09-24T06:15:50.580Z,7.06
2017-09-24T06:16:50.567Z,7.05
2017-09-24T06:17:50.653Z,7.02
2017-09-24T06:18:50.539Z,7.02
2017-09-24T06:19:50.526Z,6.97
2017-09-24T06:20:50.513Z,7.05
2017-09-24T06:21:50.498Z,7.03
2017-09-24T06:22:50.486Z,7.10
2017-09-24T06:23:50.573Z,7.17
2017-09-24T06:24:50.457Z,7.16
2017-09-24T06:25:50.448Z,7.27
2017-09-24T06:26:50.432Z,7.24
2017-09-24T06:27:50.423Z,7.25
2017-09-24T06:28:50.404Z,7.32
2017-09-24T06:29:50.490Z,7.31
2017-09-24T06:30:50.382Z,7.35
2017-09-24T06:31:50.370Z,7.30
2017-09-24T06:32:50.355Z,7.31
2017-09-24T06:33:50.337Z,7.34
2017-09-24T06:34:50.321Z,7.31
2017-09-24T06:35:50.408Z,7.34
2017-09-24T06:36:50.295Z,7.32
2017-09-24T06:37:50.282Z,7.37
2017-09-24T06:38:50.267Z,7.30
2017-09-24T06:39:50.256Z,7.27
2017-09-24T06:40:50.241Z,7.35
2017-09-24T06:41:50.326Z,7.31
2017-09-24T06:42:50.213Z,7.43
2017-09-24T06:43:50.199Z,7.28
2017-09-24T06:44:50.191Z,7.27
2017-09-24T06:45:50.172Z,7.37
2017-09-24T06:46:50.161Z,7.34
2017-09-24T06:47:50.244Z,7.37
2017-09-24T06:48:50.138Z,7.28
2017-09-24T06:49:50.117Z,7.35
2017-09-24T06:50:50.105Z,7.39
2017-09-24T06:51:50.090Z,7.34
2017-09-24T06:52:50.079Z,7.34
2017-09-24T06:53:50.163Z,7.35
2017-09-24T06:54:50.050Z,7.40
2017-09-24T06:55:50.036Z,7.40
2017-09-24T06:56:50.028Z,7.45
2017-09-24T06:57:50.008Z,7.40
2017-09-24T06:58:50.002Z,7.45
2017-09-24T06:59:50.087Z,7.45
2017-09-24T07:00:49.969Z,7.46
2017-09-24T07:01:49.961Z,7.46
2017-09-24T07:02:49.947Z,7.49
2017-09-24T07:03:49.933Z,7.49
2017-09-24T07:04:49.915Z,7.43
2017-09-24T07:05:50.006Z,7.43
2017-09-24T07:06:49.890Z,7.45
2017-09-24T07:07:49.874Z,7.40
2017-09-24T07:08:49.868Z,7.46
2017-09-24T07:09:49.848Z,7.42
2017-09-24T07:10:49.837Z,7.40
2017-09-24T07:11:49.970Z,7.48
2017-09-24T07:12:49.811Z,7.43
2017-09-24T07:13:49.794Z,7.48
2017-09-24T07:14:49.781Z,7.45
2017-09-24T07:15:49.766Z,7.55
2017-09-24T07:16:49.758Z,7.48
2017-09-24T07:17:49.890Z,7.40
2017-09-24T07:18:49.725Z,7.42
2017-09-24T07:19:49.712Z,7.43
2017-09-24T07:20:49.699Z,7.35
2017-09-24T07:21:49.685Z,7.30
2017-09-24T07:22:49.672Z,7.35
2017-09-24T07:23:49.758Z,7.31
2017-09-24T07:24:49.643Z,7.31
2017-09-24T07:25:49.636Z,7.39
2017-09-24T07:26:49.618Z,7.45
2017-09-24T07:27:49.603Z,7.49
2017-09-24T07:28:49.589Z,7.43
2017-09-24T07:29:49.676Z,7.49
2017-09-24T07:30:49.563Z,7.46
2017-09-24T07:31:49.554Z,7.46
2017-09-24T07:32:49.535Z,7.45
2017-09-24T07:33:49.527Z,7.49
2017-09-24T07:34:49.509Z,7.42
2017-09-24T07:35:49.593Z,7.27
2017-09-24T07:36:49.487Z,7.39
2017-09-24T07:37:49.473Z,7.24
2017-09-24T07:38:49.453Z,7.12
2017-09-24T07:39:49.444Z,7.23
2017-09-24T07:40:49.431Z,7.21
2017-09-24T07:41:49.514Z,7.20
2017-09-24T07:42:49.400Z,7.15
2017-09-24T07:43:49.385Z,7.24
2017-09-24T07:44:49.372Z,7.34
2017-09-24T07:45:49.363Z,7.37
2017-09-24T07:46:49.445Z,7.57
2017-09-24T07:47:49.331Z,7.63
2017-09-24T07:48:49.319Z,7.74
2017-09-24T07:49:49.304Z,8.12
2017-09-24T07:50:49.292Z,8.74
2017-09-24T07:51:49.282Z,9.69
2017-09-24T07:52:49.364Z,10.71
2017-09-24T07:53:49.252Z,11.75
2017-09-24T07:54:49.239Z,12.45
2017-09-24T07:55:49.232Z,13.33
2017-09-24T07:56:49.212Z,14.02
2017-09-24T07:57:49.202Z,14.35
2017-09-24T07:58:49.296Z,14.72
2017-09-24T07:59:49.175Z,15.09
2017-09-24T08:00:49.165Z,15.35
2017-09-24T08:01:49.152Z,15.44
2017-09-24T08:02:49.143Z,15.86
2017-09-24T08:03:49.131Z,16.25
2017-09-24T08:04:49.221Z,16.58
2017-09-24T08:05:49.117Z,16.86
2017-09-24T08:06:49.103Z,17.25
2017-09-24T08:07:49.093Z,17.71
2017-09-24T08:08:49.086Z,18.33
2017-09-24T08:09:49.078Z,18.37
2017-09-24T08:10:49.177Z,18.76
2017-09-24T08:11:49.063Z,18.57
2017-09-24T08:12:49.056Z,19.19
2017-09-24T08:13:49.048Z,19.68
2017-09-24T08:14:49.043Z,19.59
2017-09-24T08:15:49.037Z,19.51
2017-09-24T08:16:49.132Z,19.47
2017-09-24T08:17:49.028Z,19.54
2017-09-24T08:18:49.025Z,19.29
2017-09-24T08:19:49.022Z,18.92
2017-09-24T08:20:49.018Z,17.77
2017-09-24T08:21:49.015Z,16.82
2017-09-24T08:22:49.112Z,16.12
2017-09-24T08:23:49.010Z,15.49
2017-09-24T08:24:49.007Z,15.01
2017-09-24T08:25:49.004Z,14.27
2017-09-24T08:26:49.005Z,13.82
2017-09-24T08:27:49.000Z,13.29
2017-09-24T08:28:49.098Z,12.93
2017-09-24T08:29:48.985Z,12.45
2017-09-24T08:30:48.981Z,12.14
2017-09-24T08:31:48.981Z,11.90
2017-09-24T08:32:48.971Z,11.69
2017-09-24T08:33:48.963Z,11.62
2017-09-24T08:34:49.060Z,11.55
2017-09-24T08:35:48.953Z,11.43
2017-09-24T08:36:48.953Z,11.33
2017-09-24T08:37:48.939Z,11.04
2017-09-24T08:38:48.938Z,10.96
2017-09-24T08:39:48.926Z,10.79
2017-09-24T08:40:49.070Z,10.79
2017-09-24T08:41:48.912Z,10.81
2017-09-24T08:42:48.906Z,10.74
2017-09-24T08:43:48.903Z,10.71
2017-09-24T08:44:48.894Z,10.67
2017-09-24T08:45:48.882Z,10.59
2017-09-24T08:46:49.030Z,10.64
2017-09-24T08:47:48.872Z,10.47
2017-09-24T08:48:48.864Z,10.52
2017-09-24T08:49:48.858Z,10.42
2017-09-24T08:50:48.845Z,10.36
2017-09-24T08:51:48.855Z,10.42
2017-09-24T08:52:48.975Z,10.30
2017-09-24T08:53:48.823Z,10.15
2017-09-24T08:54:48.808Z,9.97
2017-09-24T08:55:48.798Z,9.79
2017-09-24T08:56:48.790Z,9.79
2017-09-24T08:57:48.780Z,9.74
2017-09-24T08:58:48.921Z,9.71
2017-09-24T08:59:48.760Z,9.61
2017-09-24T09:00:48.751Z,9.58
2017-09-24T09:01:48.742Z,9.69
2017-09-24T09:02:48.733Z,9.76
2017-09-24T09:03:48.727Z,9.68
2017-09-24T09:04:48.873Z,9.81
2017-09-24T09:05:48.707Z,9.71
2017-09-24T09:06:48.697Z,9.83
2017-09-24T09:07:48.682Z,9.84
2017-09-24T09:08:48.671Z,9.79
2017-09-24T09:09:48.661Z,9.81
2017-09-24T09:10:48.802Z,9.89
2017-09-24T09:11:48.641Z,9.96
2017-09-24T09:12:48.629Z,10.02
2017-09-24T09:13:48.621Z,10.26
2017-09-24T09:14:48.616Z,10.29
2017-09-24T09:15:48.601Z,10.30
2017-09-24T09:16:48.744Z,10.32
2017-09-24T09:17:48.578Z,10.29
2017-09-24T09:18:48.568Z,9.99
2017-09-24T09:19:48.562Z,9.87
2017-09-24T09:20:48.552Z,9.87
2017-09-24T09:21:48.537Z,9.78
2017-09-24T09:22:48.677Z,9.78
2017-09-24T09:23:48.520Z,9.65
2017-09-24T09:24:48.509Z,9.61
2017-09-24T09:25:48.494Z,9.50
2017-09-24T09:26:48.488Z,9.46
2017-09-24T09:27:48.470Z,9.40
2017-09-24T09:28:48.616Z,9.29
2017-09-24T09:29:48.450Z,9.18
2017-09-24T09:30:48.439Z,9.20
2017-09-24T09:31:48.426Z,9.33
2017-09-24T09:32:48.422Z,9.31
2017-09-24T09:33:48.411Z,9.23
2017-09-24T09:34:48.544Z,9.20
2017-09-24T09:35:48.382Z,9.17
2017-09-24T09:36:48.375Z,9.04
2017-09-24T09:37:48.363Z,9.10
2017-09-24T09:38:48.348Z,9.08
2017-09-24T09:39:48.335Z,9.10
2017-09-24T09:40:48.475Z,9.11
2017-09-24T09:41:48.313Z,9.14
2017-09-24T09:42:48.300Z,9.20
2017-09-24T09:43:48.289Z,9.23
2017-09-24T09:44:48.282Z,9.26
2017-09-24T09:45:48.267Z,9.39
2017-09-24T09:46:48.405Z,9.40
2017-09-24T09:47:48.248Z,9.46
2017-09-24T09:48:48.230Z,9.48
2017-09-24T09:49:48.219Z,9.43
2017-09-24T09:50:48.214Z,9.40
2017-09-24T09:51:48.196Z,9.46
2017-09-24T09:52:48.341Z,9.39
2017-09-24T09:53:48.173Z,9.40
2017-09-24T09:54:48.167Z,9.43
2017-09-24T09:55:48.149Z,9.39
2017-09-24T09:56:48.145Z,9.58
2017-09-24T09:57:48.129Z,9.74
2017-09-24T09:58:48.272Z,9.97
2017-09-24T09:59:48.109Z,10.08
2017-09-24T10:00:48.091Z,10.22
2017-09-24T10:01:48.086Z,10.34
2017-09-24T10:02:48.070Z,10.38
2017-09-24T10:03:48.058Z,10.61
2017-09-24T10:04:48.198Z,10.84
2017-09-24T10:05:48.040Z,10.99
2017-09-24T10:06:48.031Z,11.18
2017-09-24T10:07:48.019Z,11.33
2017-09-24T10:08:48.003Z,11.37
2017-09-24T10:09:47.993Z,11.44
2017-09-24T10:10:48.131Z,11.51
2017-09-24T10:11:47.971Z,11.51
2017-09-24T10:12:47.961Z,11.55
2017-09-24T10:13:47.950Z,11.65
2017-09-24T10:14:47.946Z,11.75
2017-09-24T10:15:47.934Z,11.90
2017-09-24T10:16:48.068Z,11.94
2017-09-24T10:17:47.915Z,11.98
2017-09-24T10:18:47.897Z,12.13
2017-09-24T10:19:47.889Z,12.23
2017-09-24T10:20:47.880Z,12.32
2017-09-24T10:21:47.868Z,12.46
2017-09-24T10:22:48.010Z,12.52
2017-09-24T10:23:47.848Z,12.57
2017-09-24T10:24:47.846Z,12.74
2017-09-24T10:25:47.835Z,12.67
2017-09-24T10:26:47.825Z,12.70
2017-09-24T10:27:47.822Z,12.79
2017-09-24T10:28:47.950Z,12.87
2017-09-24T10:29:47.791Z,12.92
2017-09-24T10:30:47.783Z,12.93
2017-09-24T10:31:47.777Z,13.00
2017-09-24T10:32:47.762Z,12.96
2017-09-24T10:33:47.753Z,12.90
2017-09-24T10:34:47.895Z,12.85
2017-09-24T10:35:47.746Z,12.97
2017-09-24T10:36:47.725Z,13.08
2017-09-24T10:37:47.717Z,13.10
2017-09-24T10:38:47.707Z,13.14
2017-09-24T10:39:47.847Z,13.15
2017-09-24T10:40:47.687Z,12.90
2017-09-24T10:41:47.829Z,12.89
2017-09-24T10:42:47.675Z,12.87
2017-09-24T10:43:47.660Z,12.77
2017-09-24T10:44:47.649Z,12.56
2017-09-24T10:45:47.648Z,12.49
2017-09-24T10:46:47.632Z,12.37
2017-09-24T10:47:47.775Z,12.24
2017-09-24T10:48:47.618Z,12.21
2017-09-24T10:49:47.604Z,12.17
2017-09-24T10:50:47.600Z,12.13
2017-09-24T10:51:47.585Z,12.23
2017-09-24T10:52:47.576Z,12.29
2017-09-24T10:53:47.716Z,12.20
2017-09-24T10:54:47.557Z,11.95
2017-09-24T10:55:47.547Z,11.95
2017-09-24T10:56:47.544Z,11.88
2017-09-24T10:57:47.527Z,11.83
2017-09-24T10:58:47.517Z,11.78
2017-09-24T10:59:47.667Z,11.82
2017-09-24T11:00:47.505Z,11.80
2017-09-24T11:01:47.490Z,11.86
2017-09-24T11:02:47.488Z,11.99
2017-09-24T11:03:47.469Z,12.14
2017-09-24T11:04:47.463Z,12.24
2017-09-24T11:05:47.605Z,12.29
2017-09-24T11:06:47.447Z,12.31
2017-09-24T11:07:47.430Z,12.13
2017-09-24T11:08:47.422Z,12.05
2017-09-24T11:09:47.412Z,12.02
2017-09-24T11:10:47.412Z,11.96
2017-09-24T11:11:47.541Z,11.91
2017-09-24T11:12:47.383Z,11.86
2017-09-24T11:13:47.374Z,11.98
2017-09-24T11:14:47.363Z,12.04
2017-09-24T11:15:47.358Z,12.10
2017-09-24T11:16:47.349Z,12.10
2017-09-24T11:17:47.485Z,12.24
2017-09-24T11:18:47.327Z,12.39
2017-09-24T11:19:47.314Z,12.57
2017-09-24T11:20:47.315Z,12.92
2017-09-24T11:21:47.296Z,13.08
2017-09-24T11:22:47.286Z,13.25
2017-09-24T11:23:47.432Z,13.32
2017-09-24T11:24:47.268Z,13.17
2017-09-24T11:25:47.259Z,13.28
2017-09-24T11:26:47.250Z,13.26
2017-09-24T11:27:47.239Z,13.25
2017-09-24T11:28:47.233Z,13.38
2017-09-24T11:29:47.373Z,13.59
2017-09-24T11:30:47.214Z,13.64
2017-09-24T11:31:47.202Z,13.79
2017-09-24T11:32:47.194Z,13.85
2017-09-24T11:33:47.185Z,13.84
2017-09-24T11:34:47.176Z,13.87
2017-09-24T11:35:47.317Z,13.87
2017-09-24T11:36:47.158Z,13.71
2017-09-24T11:37:47.155Z,13.55
2017-09-24T11:38:47.141Z,13.36
2017-09-24T11:39:47.131Z,13.25
2017-09-24T11:40:47.121Z,13.10
2017-09-24T11:41:47.264Z,12.95
2017-09-24T11:42:47.109Z,12.77
2017-09-24T11:43:47.094Z,12.62
2017-09-24T11:44:47.087Z,12.52
2017-09-24T11:45:47.110Z,12.49
2017-09-24T11:46:47.068Z,12.50
2017-09-24T11:47:47.209Z,12.35
2017-09-24T11:48:47.049Z,12.56
2017-09-24T11:49:47.041Z,12.64
2017-09-24T11:50:47.035Z,12.71
2017-09-24T11:51:47.026Z,12.92
2017-09-24T11:52:47.011Z,12.96
2017-09-24T11:53:47.158Z,13.11
2017-09-24T11:54:46.992Z,13.10
2017-09-24T11:55:46.989Z,13.14
2017-09-24T11:56:46.983Z,13.20
2017-09-24T11:57:46.966Z,13.28
2017-09-24T11:58:47.105Z,13.28
2017-09-24T11:59:47.102Z,13.23
2017-09-24T12:00:46.939Z,13.33
2017-09-24T12:01:46.932Z,13.26
2017-09-24T12:02:46.920Z,13.10
2017-09-24T12:03:46.910Z,13.11
2017-09-24T12:04:46.900Z,12.95
2017-09-24T12:05:47.042Z,12.89
2017-09-24T12:06:46.888Z,12.62
2017-09-24T12:07:46.873Z,12.56
2017-09-24T12:08:46.863Z,12.52
2017-09-24T12:09:46.855Z,12.67
2017-09-24T12:10:46.845Z,12.77
2017-09-24T12:11:46.990Z,12.70
2017-09-24T12:12:46.825Z,12.57
2017-09-24T12:13:46.816Z,12.49
2017-09-24T12:14:46.808Z,12.46
2017-09-24T12:15:46.798Z,12.38
2017-09-24T12:16:46.793Z,12.41
2017-09-24T12:17:46.930Z,12.49
2017-09-24T12:18:46.775Z,12.46
2017-09-24T12:19:46.760Z,12.56
2017-09-24T12:20:46.750Z,12.60
2017-09-24T12:21:46.741Z,12.52
2017-09-24T12:22:46.736Z,12.52
2017-09-24T12:23:46.872Z,12.62
2017-09-24T12:24:46.717Z,12.65
2017-09-24T12:25:46.702Z,12.54
2017-09-24T12:26:46.692Z,12.45
2017-09-24T12:27:46.683Z,12.24
2017-09-24T12:28:46.676Z,12.16
2017-09-24T12:29:46.818Z,11.98
2017-09-24T12:30:46.656Z,11.98
2017-09-24T12:31:46.643Z,11.95
2017-09-24T12:32:46.633Z,11.95
2017-09-24T12:33:46.624Z,11.94
2017-09-24T12:34:46.615Z,11.95
2017-09-24T12:35:46.760Z,11.94
2017-09-24T12:36:46.600Z,11.98
2017-09-24T12:37:46.590Z,11.91
2017-09-24T12:38:46.575Z,12.02
2017-09-24T12:39:46.563Z,11.95
2017-09-24T12:40:46.565Z,12.05
2017-09-24T12:41:46.695Z,12.12
2017-09-24T12:42:46.535Z,12.14
2017-09-24T12:43:46.526Z,12.17
2017-09-24T12:44:46.514Z,12.24
2017-09-24T12:45:46.506Z,12.27
2017-09-24T12:46:46.494Z,12.34
2017-09-24T12:47:46.634Z,12.50
2017-09-24T12:48:46.475Z,12.54
2017-09-24T12:49:46.471Z,12.45
2017-09-24T12:50:46.456Z,12.53
2017-09-24T12:51:46.450Z,12.52
2017-09-24T12:52:46.441Z,12.59
2017-09-24T12:53:46.575Z,12.57
2017-09-24T12:54:46.418Z,12.46
2017-09-24T12:55:46.406Z,12.57
2017-09-24T12:56:46.397Z,12.65
2017-09-24T12:57:46.388Z,12.74
2017-09-24T12:58:46.383Z,12.79
2017-09-24T12:59:46.523Z,12.71
2017-09-24T13:00:46.363Z,12.74
2017-09-24T13:01:46.348Z,12.77
2017-09-24T13:02:46.344Z,12.79
2017-09-24T13:03:46.333Z,12.90
2017-09-24T13:04:46.323Z,12.87
2017-09-24T13:05:46.460Z,12.93
2017-09-24T13:06:46.299Z,12.90
2017-09-24T13:07:46.289Z,12.89
2017-09-24T13:08:46.279Z,12.92
2017-09-24T13:09:46.275Z,12.96